createdAt,value
2023-01-09T00:01:15.453Z,8.30
2023-01-09T00:03:43.181Z,8.30
2023-01-09T00:06:12.258Z,8.30
2023-01-09T00:08:39.931Z,8.30
2023-01-09T00:11:07.592Z,8.30
2023-01-09T00:13:35.483Z,8.30
2023-01-09T00:16:03.204Z,8.30
2023-01-09T00:18:30.860Z,8.30
2023-01-09T00:21:00.204Z,8.30
2023-01-09T00:23:29.473Z,8.30
2023-01-09T00:26:04.491Z,8.40
2023-01-09T00:28:32.616Z,8.40
2023-01-09T00:31:01.306Z,8.40
2023-01-09T00:33:30.244Z,8.40
2023-01-09T00:35:57.917Z,8.40
2023-01-09T00:38:25.547Z,8.30
2023-01-09T00:40:55.255Z,8.30
2023-01-09T00:43:24.849Z,8.30
2023-01-09T00:45:52.603Z,8.30
2023-01-09T00:48:26.495Z,8.40
2023-01-09T00:50:54.425Z,8.40
2023-01-09T00:53:24.440Z,8.40
2023-01-09T00:56:03.291Z,8.30
2023-01-09T00:58:31.027Z,8.40
2023-01-09T01:00:58.788Z,8.40
2023-01-09T01:03:26.555Z,8.40
2023-01-09T01:06:11.866Z,8.40
2023-01-09T01:08:39.625Z,8.40
2023-01-09T01:11:10.145Z,8.40
2023-01-09T01:13:38.381Z,8.40
2023-01-09T01:16:06.921Z,8.40
2023-01-09T01:18:34.702Z,8.60
2023-01-09T01:21:02.373Z,8.60
2023-01-09T01:23:30.029Z,8.60
2023-01-09T01:25:57.702Z,8.60
2023-01-09T01:28:26.689Z,8.60
2023-01-09T01:30:54.794Z,8.60
2023-01-09T01:33:22.496Z,8.70
2023-01-09T01:35:50.140Z,8.70
2023-01-09T01:38:17.775Z,8.60
2023-01-09T01:40:45.429Z,8.60
2023-01-09T01:43:13.539Z,8.70
2023-01-09T01:45:43.138Z,8.60
2023-01-09T01:48:12.002Z,8.70
2023-01-09T01:50:41.875Z,8.70
2023-01-09T01:53:12.227Z,8.70
2023-01-09T01:55:40.880Z,8.70
2023-01-09T01:58:10.772Z,8.90
2023-01-09T02:00:39.909Z,8.90
2023-01-09T02:03:08.979Z,8.90
2023-01-09T02:05:37.559Z,8.90
2023-01-09T02:08:05.534Z,8.90
2023-01-09T02:10:33.246Z,8.80
2023-01-09T02:13:01.976Z,8.80
2023-01-09T02:15:31.052Z,8.80
2023-01-09T02:18:19.703Z,8.80
2023-01-09T02:20:51.928Z,8.80
2023-01-09T02:23:34.448Z,8.70
2023-01-09T02:26:19.572Z,8.60
2023-01-09T02:28:58.426Z,8.60
2023-01-09T02:31:29.240Z,8.60
2023-01-09T02:34:01.825Z,8.70
2023-01-09T02:36:32.705Z,8.60
2023-01-09T02:39:06.595Z,8.50
2023-01-09T02:41:37.767Z,8.50
2023-01-09T02:44:18.794Z,8.40
2023-01-09T02:46:48.039Z,8.30
2023-01-09T02:49:17.679Z,8.20
2023-01-09T02:51:50.446Z,8.20
2023-01-09T02:54:24.580Z,8.10
2023-01-09T02:57:02.847Z,8.10
2023-01-09T02:59:34.148Z,8.10
2023-01-09T03:02:13.953Z,8.10
2023-01-09T03:04:45.019Z,8.20
2023-01-09T03:07:15.451Z,8.20
2023-01-09T03:09:43.713Z,8.20
2023-01-09T03:12:14.535Z,8.10
2023-01-09T03:14:45.214Z,7.90
2023-01-09T03:17:15.586Z,8.00
2023-01-09T03:19:44.015Z,7.90
2023-01-09T03:22:12.608Z,7.90
2023-01-09T03:24:40.250Z,8.00
2023-01-09T03:27:08.468Z,8.00
2023-01-09T03:29:37.323Z,7.90
2023-01-09T03:32:05.137Z,7.90
2023-01-09T03:34:34.152Z,8.00
2023-01-09T03:37:02.092Z,7.90
2023-01-09T03:39:29.798Z,7.90
2023-01-09T03:41:57.457Z,7.80
2023-01-09T03:44:25.095Z,7.90
2023-01-09T03:46:52.748Z,7.80
2023-01-09T03:49:21.529Z,7.90
2023-01-09T03:51:50.786Z,7.80
2023-01-09T03:54:18.416Z,7.80
2023-01-09T03:56:46.046Z,7.70
2023-01-09T03:59:13.727Z,7.70
2023-01-09T04:01:41.434Z,7.70
2023-01-09T04:04:09.213Z,7.70
2023-01-09T04:06:36.898Z,7.70
2023-01-09T04:09:05.961Z,7.70
2023-01-09T04:11:33.610Z,7.70
2023-01-09T04:14:01.276Z,7.80
2023-01-09T04:16:28.919Z,7.80
2023-01-09T04:18:56.578Z,7.90
2023-01-09T04:21:24.236Z,7.90
2023-01-09T04:23:51.889Z,7.80
2023-01-09T04:26:20.885Z,7.90
2023-01-09T04:28:48.586Z,8.00
2023-01-09T04:31:16.250Z,7.90
2023-01-09T04:33:43.959Z,8.00
2023-01-09T04:36:11.638Z,7.90
2023-01-09T04:38:39.268Z,7.90
2023-01-09T04:41:06.913Z,8.00
2023-01-09T04:43:36.231Z,8.00
2023-01-09T04:46:04.131Z,8.00
2023-01-09T04:48:31.845Z,8.00
2023-01-09T04:50:59.491Z,8.00
2023-01-09T04:53:27.116Z,8.00
2023-01-09T04:55:54.777Z,7.90
2023-01-09T04:58:22.464Z,7.80
2023-01-09T05:00:52.577Z,7.80
2023-01-09T05:03:20.302Z,8.00
2023-01-09T05:05:47.953Z,7.80
2023-01-09T05:08:15.583Z,7.70
2023-01-09T05:10:43.292Z,7.50
2023-01-09T05:13:10.955Z,7.50
2023-01-09T05:15:38.620Z,7.50
2023-01-09T05:18:07.627Z,7.40
2023-01-09T05:20:35.302Z,7.30
2023-01-09T05:23:02.931Z,7.20
2023-01-09T05:25:30.613Z,7.20
2023-01-09T05:27:58.267Z,7.10
2023-01-09T05:30:25.939Z,7.10
2023-01-09T05:32:53.629Z,6.90
2023-01-09T05:35:22.889Z,6.90
2023-01-09T05:37:50.604Z,6.90
2023-01-09T05:40:18.509Z,7.00
2023-01-09T05:42:46.170Z,7.00
2023-01-09T05:45:13.848Z,6.90
2023-01-09T05:47:41.692Z,6.90
2023-01-09T05:50:10.157Z,6.90
2023-01-09T05:52:39.220Z,6.90
2023-01-09T05:55:07.512Z,6.90
2023-01-09T05:57:35.190Z,6.80
2023-01-09T06:00:03.062Z,6.70
2023-01-09T06:02:30.807Z,6.70
2023-01-09T06:04:58.609Z,6.70
2023-01-09T06:07:26.289Z,6.60
2023-01-09T06:09:55.292Z,6.60
2023-01-09T06:12:23.022Z,6.60
2023-01-09T06:14:50.658Z,6.50
2023-01-09T06:17:18.307Z,6.50
2023-01-09T06:19:45.993Z,6.50
2023-01-09T06:22:13.647Z,6.50
2023-01-09T06:24:41.324Z,6.50
2023-01-09T06:27:10.320Z,6.50
2023-01-09T06:29:37.985Z,6.50
2023-01-09T06:32:05.787Z,6.50
2023-01-09T06:34:33.448Z,6.50
2023-01-09T06:37:01.100Z,6.60
2023-01-09T06:39:28.773Z,6.60
2023-01-09T06:41:56.448Z,6.60
2023-01-09T06:44:25.496Z,6.60
2023-01-09T06:46:53.136Z,6.60
2023-01-09T06:49:23.482Z,6.60
2023-01-09T06:51:51.497Z,6.60
2023-01-09T06:54:19.462Z,6.60
2023-01-09T06:56:47.149Z,6.60
2023-01-09T06:59:14.799Z,6.60
2023-01-09T07:01:43.999Z,6.60
2023-01-09T07:04:12.016Z,6.60
2023-01-09T07:06:40.019Z,6.60
2023-01-09T07:09:07.679Z,6.60
2023-01-09T07:11:35.348Z,6.60
2023-01-09T07:14:03.036Z,6.70
2023-01-09T07:16:30.683Z,6.70
2023-01-09T07:18:59.820Z,6.70
2023-01-09T07:21:27.657Z,6.70
2023-01-09T07:23:55.322Z,6.70
2023-01-09T07:26:23.016Z,6.70
2023-01-09T07:28:50.672Z,6.70
2023-01-09T07:31:18.570Z,6.70
2023-01-09T07:33:46.298Z,6.70
2023-01-09T07:36:15.334Z,6.70
2023-01-09T07:38:43.003Z,6.80
2023-01-09T07:41:10.714Z,6.80
2023-01-09T07:43:39.197Z,6.80
2023-01-09T07:46:07.054Z,6.80
2023-01-09T07:48:34.790Z,6.90
2023-01-09T07:51:02.442Z,6.80
2023-01-09T07:53:31.524Z,6.90
2023-01-09T07:55:59.240Z,6.90
2023-01-09T07:58:26.873Z,6.90
2023-01-09T08:00:54.560Z,6.90
2023-01-09T08:03:22.235Z,6.90
2023-01-09T08:05:51.449Z,6.90
2023-01-09T08:08:19.412Z,6.90
2023-01-09T08:10:48.430Z,6.90
2023-01-09T08:13:16.068Z,6.90
2023-01-09T08:15:43.880Z,6.90
2023-01-09T08:18:11.590Z,6.90
2023-01-09T08:20:39.261Z,6.90
2023-01-09T08:23:06.946Z,6.90
2023-01-09T08:25:34.604Z,6.90
2023-01-09T08:28:03.583Z,7.00
2023-01-09T08:30:31.236Z,7.00
2023-01-09T08:32:58.960Z,7.00
2023-01-09T08:35:26.648Z,7.10
2023-01-09T08:37:54.357Z,7.10
2023-01-09T08:40:22.064Z,7.10
2023-01-09T08:43:07.388Z,7.20
2023-01-09T08:45:53.745Z,7.40
2023-01-09T08:48:21.407Z,7.40
2023-01-09T08:50:49.076Z,7.50
2023-01-09T08:53:16.962Z,7.50
2023-01-09T08:55:44.854Z,7.50
2023-01-09T08:58:12.627Z,7.50
2023-01-09T09:00:41.810Z,7.60
2023-01-09T09:03:10.075Z,7.80
2023-01-09T09:05:37.719Z,7.80
2023-01-09T09:08:06.280Z,8.00
2023-01-09T09:10:33.952Z,8.10
2023-01-09T09:13:01.640Z,8.00
2023-01-09T09:15:29.370Z,7.90
2023-01-09T09:17:59.042Z,7.70
2023-01-09T09:20:27.623Z,7.80
2023-01-09T09:22:55.505Z,7.70
2023-01-09T09:25:23.679Z,7.70
2023-01-09T09:27:51.375Z,7.70
2023-01-09T09:30:20.483Z,7.70
2023-01-09T09:32:48.268Z,7.80
2023-01-09T09:35:18.656Z,7.80
2023-01-09T09:37:53.812Z,7.70
2023-01-09T09:40:24.262Z,7.60
2023-01-09T09:43:28.179Z,7.50
2023-01-09T09:46:00.849Z,7.50
2023-01-09T09:48:33.108Z,7.40
2023-01-09T09:51:11.008Z,7.40
2023-01-09T09:53:41.058Z,7.30
2023-01-09T09:56:11.731Z,7.20
2023-01-09T09:58:40.279Z,7.20
2023-01-09T10:01:08.906Z,7.10
2023-01-09T10:03:39.011Z,7.20
2023-01-09T10:06:10.021Z,7.20
2023-01-09T10:08:40.137Z,7.20
2023-01-09T10:11:13.757Z,7.20
2023-01-09T10:13:58.837Z,7.20
2023-01-09T10:16:32.796Z,7.30
2023-01-09T10:19:06.594Z,7.30
2023-01-09T10:21:38.020Z,7.30
2023-01-09T10:24:10.612Z,7.30
2023-01-09T10:26:41.691Z,7.40
2023-01-09T10:29:22.776Z,7.40
2023-01-09T10:31:57.380Z,7.30
2023-01-09T10:34:34.254Z,7.30
2023-01-09T10:37:06.302Z,7.30
2023-01-09T10:39:36.748Z,7.30
2023-01-09T10:42:11.104Z,7.30
2023-01-09T10:44:43.181Z,7.30
2023-01-09T10:47:15.160Z,7.30
2023-01-09T10:49:42.844Z,7.30
2023-01-09T10:52:16.631Z,7.30
2023-01-09T10:54:47.133Z,7.30
2023-01-09T10:57:16.637Z,7.40
2023-01-09T10:59:44.345Z,7.40
2023-01-09T11:02:21.592Z,7.40
2023-01-09T11:04:49.301Z,7.50
2023-01-09T11:07:19.705Z,7.60
2023-01-09T11:09:57.587Z,7.60
2023-01-09T11:12:26.234Z,7.80
2023-01-09T11:14:53.880Z,7.90
2023-01-09T11:17:22.482Z,8.00
2023-01-09T11:20:03.588Z,8.10
2023-01-09T11:22:42.685Z,8.20
2023-01-09T11:25:12.678Z,8.30
2023-01-09T11:27:40.535Z,8.50
2023-01-09T11:30:15.623Z,8.80
2023-01-09T11:32:43.701Z,8.80
2023-01-09T11:35:16.716Z,8.70
2023-01-09T11:37:46.267Z,8.70
2023-01-09T11:40:18.870Z,8.80
2023-01-09T11:43:01.435Z,9.10
2023-01-09T11:45:31.054Z,9.30
2023-01-09T11:47:58.952Z,9.80
2023-01-09T11:50:28.360Z,10.10
2023-01-09T11:53:13.249Z,10.00
2023-01-09T11:55:42.789Z,9.90
2023-01-09T11:58:13.191Z,10.20
2023-01-09T12:00:45.330Z,10.50
2023-01-09T12:03:20.975Z,10.10
2023-01-09T12:05:52.365Z,9.80
2023-01-09T12:08:28.976Z,9.40
2023-01-09T12:11:10.845Z,9.00
2023-01-09T12:13:50.158Z,8.80
2023-01-09T12:16:24.109Z,8.60
2023-01-09T12:18:58.087Z,8.50
2023-01-09T12:21:31.908Z,8.40
2023-01-09T12:24:18.381Z,8.30
2023-01-09T12:26:52.153Z,8.30
2023-01-09T12:29:27.921Z,8.20
2023-01-09T12:32:02.385Z,8.20
2023-01-09T12:34:37.065Z,8.10
2023-01-09T12:37:15.553Z,8.10
2023-01-09T12:39:51.905Z,8.10
2023-01-09T12:42:30.318Z,8.10
2023-01-09T12:45:00.272Z,8.20
2023-01-09T12:47:39.760Z,8.20
2023-01-09T12:50:15.817Z,8.40
2023-01-09T12:52:45.392Z,8.40
2023-01-09T12:55:16.654Z,8.50
2023-01-09T12:57:45.691Z,8.60
2023-01-09T13:00:19.056Z,8.80
2023-01-09T13:02:48.232Z,8.90
2023-01-09T13:05:17.429Z,8.90
2023-01-09T13:07:47.288Z,8.90
2023-01-09T13:10:19.255Z,8.90
2023-01-09T13:12:48.998Z,8.80
2023-01-09T13:15:23.527Z,8.70
2023-01-09T13:17:52.359Z,8.70
2023-01-09T13:20:22.030Z,8.70
2023-01-09T13:22:52.222Z,8.60
2023-01-09T13:25:34.815Z,8.60
2023-01-09T13:28:06.855Z,8.60
2023-01-09T13:30:42.155Z,8.50
2023-01-09T13:33:15.718Z,8.50
2023-01-09T13:35:50.441Z,8.60
2023-01-09T13:38:19.112Z,8.60
2023-01-09T13:40:46.797Z,8.60
2023-01-09T13:43:16.723Z,8.60
2023-01-09T13:45:44.942Z,8.60
2023-01-09T13:48:25.877Z,8.40
2023-01-09T13:50:55.758Z,8.40
2023-01-09T13:53:41.791Z,8.40
2023-01-09T13:56:09.495Z,8.30
2023-01-09T13:58:55.870Z,8.20
2023-01-09T14:01:44.693Z,8.20
2023-01-09T14:04:28.784Z,8.20
2023-01-09T14:07:16.633Z,8.20
2023-01-09T14:09:48.039Z,8.20
2023-01-09T14:12:16.377Z,8.20
2023-01-09T14:14:45.978Z,8.20
2023-01-09T14:17:19.906Z,8.20
2023-01-09T14:19:47.634Z,8.10
2023-01-09T14:22:25.022Z,8.10
2023-01-09T14:24:54.293Z,8.00
2023-01-09T14:27:40.808Z,8.00
2023-01-09T14:30:28.068Z,8.00
2023-01-09T14:33:00.958Z,8.00
2023-01-09T14:35:30.050Z,7.90
2023-01-09T14:38:14.544Z,7.90
2023-01-09T14:40:46.071Z,7.90
2023-01-09T14:43:16.339Z,7.90
2023-01-09T14:45:45.425Z,7.80
2023-01-09T14:48:14.535Z,7.80
2023-01-09T14:50:45.099Z,7.80
2023-01-09T14:53:14.344Z,7.80
2023-01-09T14:55:50.493Z,7.70
2023-01-09T14:58:22.542Z,7.70
2023-01-09T15:00:53.288Z,7.60
2023-01-09T15:03:23.294Z,7.70
2023-01-09T15:05:51.783Z,7.70
2023-01-09T15:08:21.698Z,7.60
2023-01-09T15:10:50.428Z,7.60
2023-01-09T15:13:19.588Z,7.60
2023-01-09T15:15:48.366Z,7.60
2023-01-09T15:18:19.946Z,7.60
2023-01-09T15:20:52.385Z,7.60
2023-01-09T15:23:22.762Z,7.60
2023-01-09T15:25:50.512Z,7.60
2023-01-09T15:28:25.041Z,7.60
2023-01-09T15:30:57.889Z,7.60
2023-01-09T15:33:25.632Z,7.60
2023-01-09T15:36:00.063Z,7.60
2023-01-09T15:38:28.959Z,7.60
2023-01-09T15:40:58.234Z,7.60
2023-01-09T15:43:26.279Z,7.60
2023-01-09T15:45:54.740Z,7.60
2023-01-09T15:48:24.284Z,7.50
2023-01-09T15:50:54.731Z,7.50
2023-01-09T15:53:25.268Z,7.50
2023-01-09T15:56:03.577Z,7.50
2023-01-09T15:58:34.504Z,7.50
2023-01-09T16:01:03.835Z,7.50
2023-01-09T16:03:31.853Z,7.50
2023-01-09T16:06:05.417Z,7.50
2023-01-09T16:08:36.102Z,7.50
2023-01-09T16:11:05.007Z,7.50
2023-01-09T16:13:33.927Z,7.50
2023-01-09T16:16:02.245Z,7.40
2023-01-09T16:18:31.476Z,7.40
2023-01-09T16:21:06.524Z,7.40
2023-01-09T16:23:36.308Z,7.40
2023-01-09T16:26:05.033Z,7.30
2023-01-09T16:28:32.836Z,7.30
2023-01-09T16:31:01.502Z,7.30
2023-01-09T16:33:30.277Z,7.30
2023-01-09T16:35:59.322Z,7.30
2023-01-09T16:38:27.325Z,7.30
2023-01-09T16:41:23.545Z,7.30
2023-01-09T16:43:51.683Z,7.30
2023-01-09T16:46:20.295Z,7.30
2023-01-09T16:48:48.504Z,7.20
2023-01-09T16:51:17.125Z,7.30
2023-01-09T16:53:45.030Z,7.30
2023-01-09T16:56:19.829Z,7.30
2023-01-09T16:58:47.522Z,7.30
2023-01-09T17:01:15.796Z,7.30
2023-01-09T17:03:44.413Z,7.30
2023-01-09T17:06:15.920Z,7.30
2023-01-09T17:08:44.046Z,7.30
2023-01-09T17:11:18.320Z,7.30
2023-01-09T17:13:47.951Z,7.20
2023-01-09T17:16:17.435Z,7.20
2023-01-09T17:18:45.389Z,7.20
2023-01-09T17:21:17.618Z,7.20
2023-01-09T17:23:45.472Z,7.10
2023-01-09T17:26:34.195Z,7.10
2023-01-09T17:29:03.354Z,7.10
2023-01-09T17:31:31.558Z,7.10
2023-01-09T17:33:59.745Z,7.10
2023-01-09T17:36:29.047Z,7.10
2023-01-09T17:38:56.695Z,7.10
2023-01-09T17:41:25.058Z,7.10
2023-01-09T17:43:52.934Z,7.10
2023-01-09T17:46:25.083Z,7.00
2023-01-09T17:48:53.337Z,7.00
2023-01-09T17:51:21.059Z,7.00
2023-01-09T17:54:16.918Z,7.00
2023-01-09T17:56:45.948Z,6.90
2023-01-09T17:59:14.339Z,6.90
2023-01-09T18:01:44.696Z,6.80
2023-01-09T18:04:12.628Z,6.80
2023-01-09T18:06:40.320Z,6.80
2023-01-09T18:09:08.489Z,6.80
2023-01-09T18:11:36.242Z,6.70
2023-01-09T18:14:03.912Z,6.80
2023-01-09T18:16:31.605Z,6.70
2023-01-09T18:19:01.714Z,6.70
2023-01-09T18:21:30.077Z,6.80
2023-01-09T18:23:58.721Z,6.80
2023-01-09T18:26:26.470Z,6.70
2023-01-09T18:28:56.948Z,6.80
2023-01-09T18:31:26.008Z,6.70
2023-01-09T18:33:54.590Z,6.70
2023-01-09T18:36:24.586Z,6.60
2023-01-09T18:38:53.273Z,6.60
2023-01-09T18:41:21.252Z,6.50
2023-01-09T18:43:49.585Z,6.50
2023-01-09T18:46:20.522Z,6.50
2023-01-09T18:48:51.536Z,6.50
2023-01-09T18:51:19.419Z,6.40
2023-01-09T18:53:48.427Z,6.40
2023-01-09T18:56:16.466Z,6.40
2023-01-09T18:58:44.151Z,6.40
2023-01-09T19:01:12.407Z,6.30
2023-01-09T19:03:40.143Z,6.30
2023-01-09T19:06:08.124Z,6.30
2023-01-09T19:08:36.643Z,6.20
2023-01-09T19:11:05.957Z,6.20
2023-01-09T19:13:34.276Z,6.20
2023-01-09T19:16:02.333Z,6.20
2023-01-09T19:18:32.896Z,6.20
2023-01-09T19:21:00.545Z,6.10
2023-01-09T19:23:28.248Z,6.20
2023-01-09T19:25:57.632Z,6.10
2023-01-09T19:28:26.705Z,6.10
2023-01-09T19:30:57.703Z,6.10
2023-01-09T19:33:25.478Z,6.10
2023-01-09T19:35:53.567Z,6.10
2023-01-09T19:38:22.539Z,6.00
2023-01-09T19:40:50.438Z,6.00
2023-01-09T19:43:26.484Z,5.90
2023-01-09T19:45:56.301Z,5.90
2023-01-09T19:48:26.976Z,5.90
2023-01-09T19:51:01.121Z,5.80
2023-01-09T19:53:30.130Z,5.80
2023-01-09T19:56:07.055Z,5.80
2023-01-09T19:58:34.918Z,5.70
2023-01-09T20:01:08.440Z,5.70
2023-01-09T20:03:37.315Z,5.70
2023-01-09T20:06:05.879Z,5.60
2023-01-09T20:08:33.536Z,5.60
2023-01-09T20:11:06.476Z,5.60
2023-01-09T20:13:34.375Z,5.50
2023-01-09T20:16:03.584Z,5.60
2023-01-09T20:18:33.516Z,5.50
2023-01-09T20:21:01.773Z,5.50
2023-01-09T20:23:32.303Z,5.50
2023-01-09T20:26:00.260Z,5.60
2023-01-09T20:28:28.414Z,5.60
2023-01-09T20:30:56.077Z,5.60
2023-01-09T20:33:24.338Z,5.60
2023-01-09T20:35:53.327Z,5.50
2023-01-09T20:38:21.117Z,5.50
2023-01-09T20:40:48.825Z,5.40
2023-01-09T20:43:16.494Z,5.40
2023-01-09T20:45:44.171Z,5.50
2023-01-09T20:48:14.387Z,5.50
2023-01-09T20:50:42.070Z,5.40
2023-01-09T20:53:11.052Z,5.40
2023-01-09T20:55:38.706Z,5.30
2023-01-09T20:58:06.378Z,5.30
2023-01-09T21:00:34.040Z,5.30
2023-01-09T21:03:01.749Z,5.20
2023-01-09T21:05:29.396Z,5.20
2023-01-09T21:07:57.125Z,5.10
2023-01-09T21:10:26.423Z,5.10
2023-01-09T21:12:54.114Z,5.10
2023-01-09T21:15:23.114Z,5.10
2023-01-09T21:17:50.793Z,5.20
2023-01-09T21:20:18.426Z,5.10
2023-01-09T21:22:46.080Z,5.10
2023-01-09T21:25:15.724Z,5.10
2023-01-09T21:27:45.845Z,5.20
2023-01-09T21:30:13.708Z,5.10
2023-01-09T21:32:41.458Z,5.20
2023-01-09T21:35:09.467Z,5.10
2023-01-09T21:37:37.658Z,5.20
2023-01-09T21:40:08.270Z,5.20
2023-01-09T21:43:02.287Z,5.20
2023-01-09T21:45:50.575Z,5.10
2023-01-09T21:48:18.425Z,5.20
2023-01-09T21:50:46.078Z,5.20
2023-01-09T21:53:13.779Z,5.40
2023-01-09T21:55:41.424Z,5.90
2023-01-09T21:58:09.087Z,6.00
2023-01-09T22:00:39.011Z,6.30
2023-01-09T22:03:09.139Z,6.50
2023-01-09T22:05:37.127Z,6.70
2023-01-09T22:08:04.795Z,6.90
2023-01-09T22:10:32.458Z,7.10
2023-01-09T22:13:17.405Z,7.20
2023-01-09T22:15:48.025Z,7.30
2023-01-09T22:18:15.722Z,7.30
2023-01-09T22:20:43.395Z,7.30
2023-01-09T22:23:11.036Z,7.20
2023-01-09T22:25:38.935Z,7.10
2023-01-09T22:28:09.935Z,7.10
2023-01-09T22:30:39.562Z,7.10
2023-01-09T22:33:10.677Z,6.80
2023-01-09T22:35:38.449Z,7.00
2023-01-09T22:38:06.303Z,7.00
2023-01-09T22:40:34.137Z,6.90
2023-01-09T22:43:01.786Z,6.90
2023-01-09T22:45:29.826Z,6.90
2023-01-09T22:47:57.711Z,6.80
2023-01-09T22:50:26.719Z,6.80
2023-01-09T22:52:54.365Z,6.70
2023-01-09T22:55:22.027Z,6.60
2023-01-09T22:57:49.854Z,6.50
2023-01-09T23:00:17.923Z,6.50
2023-01-09T23:02:45.710Z,6.50
2023-01-09T23:05:13.453Z,6.50
2023-01-09T23:07:42.460Z,6.60
2023-01-09T23:10:10.659Z,6.60
2023-01-09T23:12:38.306Z,6.60
2023-01-09T23:15:06.510Z,6.50
2023-01-09T23:17:34.201Z,6.50
2023-01-09T23:20:01.836Z,6.50
2023-01-09T23:22:29.508Z,6.60
2023-01-09T23:24:58.650Z,6.60
2023-01-09T23:27:26.291Z,6.50
2023-01-09T23:29:53.937Z,6.70
2023-01-09T23:32:21.674Z,6.70
2023-01-09T23:34:49.487Z,6.60
2023-01-09T23:37:17.280Z,6.60
2023-01-09T23:39:44.946Z,6.40
2023-01-09T23:42:31.633Z,6.50
2023-01-09T23:44:59.292Z,6.40
2023-01-09T23:47:26.955Z,6.50
2023-01-09T23:49:54.648Z,6.50
2023-01-09T23:52:22.365Z,6.60
2023-01-09T23:54:50.026Z,6.70
2023-01-09T23:57:19.015Z,6.70
2023-01-09T23:59:46.692Z,6.70
